Time;durP1;ratioP1;P1;durP2;ratioP2;P2;SDS_P1;SDS_P2;PMS_P1;PMS_P2;Temp;Humidity;BMP_temperature;BMP_pressure;BME280_temperature;BME280_humidity;BME280_pressure;Samples;Min_cycle;Max_cycle;Signal;HPM_P1;HPM_P2
2024/02/15 00:00:17;;;;;;;;;;;16.90;74.00;;;;;;5054269;28;19962;-72
2024/02/15 00:02:44;;;;;;;;;;;16.90;73.30;;;;;;5054262;28;19912;-72
2024/02/15 00:05:10;;;;;;;;;;;16.80;73.80;;;;;;5054018;28;19931;-72
2024/02/15 00:07:36;;;;;;;;;;;16.90;74.70;;;;;;5054032;28;20367;-72
2024/02/15 00:10:03;;;;;;;;;;;16.90;73.80;;;;;;5053974;28;19956;-72
2024/02/15 00:12:29;;;;;;;;;;;16.90;73.80;;;;;;5054182;28;19913;-72
2024/02/15 00:14:58;;;;;;;;;;;16.80;73.80;;;;;;5053844;28;19916;-72
2024/02/15 00:17:29;;;;;;;;;;;16.90;73.80;;;;;;5053762;28;19915;-72
2024/02/15 00:19:54;;;;;;;;;;;16.80;69.50;;;;;;5053756;28;19970;-72
2024/02/15 00:22:21;;;;;;;;;;;16.90;74.00;;;;;;5054024;28;19912;-72
2024/02/15 00:24:48;;;;;;;;;;;16.90;73.70;;;;;;5053611;28;19916;-72
2024/02/15 00:27:17;;;;;;;;;;;16.90;73.30;;;;;;5054318;28;20281;-70
2024/02/15 00:29:42;;;;;;;;;;;17.00;73.90;;;;;;5053534;28;19908;-70
2024/02/15 00:32:10;;;;;;;;;;;16.80;73.40;;;;;;5053510;28;19920;-71
2024/02/15 00:34:36;;;;;;;;;;;16.90;73.60;;;;;;5053357;28;20433;-70
2024/02/15 00:37:02;;;;;;;;;;;16.90;73.80;;;;;;5053694;28;19909;-70
2024/02/15 00:39:27;;;;;;;;;;;16.90;73.50;;;;;;5053309;28;19909;-70
2024/02/15 00:41:55;;;;;;;;;;;16.90;73.60;;;;;;5053333;28;19979;-70
2024/02/15 00:44:20;;;;;;;;;;;16.90;73.70;;;;;;5053432;28;19909;-70
2024/02/15 00:46:47;;;;;;;;;;;16.90;73.90;;;;;;5053212;28;20294;-70
2024/02/15 00:49:13;;;;;;;;;;;16.90;73.60;;;;;;5053410;28;19913;-70
2024/02/15 00:51:38;;;;;;;;;;;16.90;73.90;;;;;;5053069;28;20417;-71
2024/02/15 00:54:04;;;;;;;;;;;17.00;73.30;;;;;;5053631;28;19932;-70
2024/02/15 00:56:30;;;;;;;;;;;17.10;73.60;;;;;;5052981;28;19959;-71
2024/02/15 00:58:56;;;;;;;;;;;16.90;73.40;;;;;;5053050;28;19909;-71
2024/02/15 01:01:22;;;;;;;;;;;17.00;73.30;;;;;;5053172;28;19916;-71
2024/02/15 01:03:47;;;;;;;;;;;17.20;73.80;;;;;;5052941;28;19932;-71
2024/02/15 01:06:13;;;;;;;;;;;17.00;73.80;;;;;;5052989;28;19908;-71
2024/02/15 01:08:38;;;;;;;;;;;17.00;73.80;;;;;;5052824;28;19975;-71
2024/02/15 01:11:06;;;;;;;;;;;17.00;73.70;;;;;;5052666;28;19917;-71
2024/02/15 01:13:32;;;;;;;;;;;17.00;74.00;;;;;;5052948;28;19913;-71
2024/02/15 01:15:58;;;;;;;;;;;17.10;73.80;;;;;;5052676;28;20374;-71
2024/02/15 01:18:23;;;;;;;;;;;17.10;74.00;;;;;;5052873;28;19913;-70
2024/02/15 01:20:49;;;;;;;;;;;17.10;74.00;;;;;;5052595;28;19948;-70
2024/02/15 01:23:15;;;;;;;;;;;17.10;73.50;;;;;;5053400;28;19909;-70
2024/02/15 01:25:41;;;;;;;;;;;17.30;74.00;;;;;;5052439;28;20439;-70
2024/02/15 01:28:07;;;;;;;;;;;17.10;73.60;;;;;;5052763;28;19914;-70
2024/02/15 01:30:33;;;;;;;;;;;17.20;73.80;;;;;;5052284;28;19917;-71
2024/02/15 01:32:59;;;;;;;;;;;17.10;73.90;;;;;;5052378;28;19968;-70
2024/02/15 01:35:25;;;;;;;;;;;17.30;73.90;;;;;;5052707;28;19999;-71
2024/02/15 01:37:52;;;;;;;;;;;17.10;73.80;;;;;;5052382;28;20415;-70
2024/02/15 01:40:18;;;;;;;;;;;17.10;73.60;;;;;;5052585;28;19913;-70
2024/02/15 01:42:49;;;;;;;;;;;17.10;73.70;;;;;;5052613;28;20333;-70
2024/02/15 01:45:16;;;;;;;;;;;17.20;69.70;;;;;;5052526;28;19909;-70
2024/02/15 01:47:42;;;;;;;;;;;17.10;73.80;;;;;;5052202;28;19909;-70
2024/02/15 01:50:11;;;;;;;;;;;17.20;74.00;;;;;;5051593;28;19948;-70
2024/02/15 01:52:37;;;;;;;;;;;17.10;73.20;;;;;;5052871;28;19909;-70
2024/02/15 01:55:07;;;;;;;;;;;17.20;73.90;;;;;;5052122;28;19916;-70
2024/02/15 01:57:39;;;;;;;;;;;17.20;72.60;;;;;;5052015;28;19916;-70
2024/02/15 02:00:08;;;;;;;;;;;17.20;69.50;;;;;;5052351;28;19915;-70
2024/02/15 02:02:35;;;;;;;;;;;17.20;73.40;;;;;;5052010;28;20024;-70
2024/02/15 02:05:01;;;;;;;;;;;17.10;73.70;;;;;;5052375;28;20004;-70
2024/02/15 02:07:27;;;;;;;;;;;17.20;73.70;;;;;;5052067;28;19909;-70
2024/02/15 02:09:53;;;;;;;;;;;18.80;74.40;;;;;;5052226;28;19932;-70
2024/02/15 02:12:19;;;;;;;;;;;17.20;73.50;;;;;;5052107;28;19920;-70
2024/02/15 02:14:45;;;;;;;;;;;17.20;73.50;;;;;;5052258;28;20278;-70
2024/02/15 02:17:13;;;;;;;;;;;17.30;73.40;;;;;;5052272;28;19915;-70
2024/02/15 02:19:39;;;;;;;;;;;17.30;73.30;;;;;;5052374;28;19909;-70
2024/02/15 02:22:05;;;;;;;;;;;17.20;73.30;;;;;;5052176;28;19915;-70
2024/02/15 02:24:36;;;;;;;;;;;17.20;73.50;;;;;;5051849;28;19945;-70
2024/02/15 02:27:05;;;;;;;;;;;17.30;73.70;;;;;;5051827;28;20000;-71
2024/02/15 02:29:31;;;;;;;;;;;17.30;73.50;;;;;;5052083;28;20008;-70
2024/02/15 02:31:57;;;;;;;;;;;17.30;73.20;;;;;;5052043;28;19917;-70
2024/02/15 02:34:24;;;;;;;;;;;17.30;73.50;;;;;;5051606;28;19939;-70
2024/02/15 02:36:51;;;;;;;;;;;17.30;73.20;;;;;;5051751;28;19991;-71
2024/02/15 02:39:17;;;;;;;;;;;17.30;73.40;;;;;;5052034;28;19909;-70
2024/02/15 02:41:43;;;;;;;;;;;17.20;73.20;;;;;;5052004;28;19909;-70
2024/02/15 02:44:09;;;;;;;;;;;17.30;73.40;;;;;;5051880;28;19963;-70
2024/02/15 02:46:35;;;;;;;;;;;17.30;72.90;;;;;;5051984;28;19909;-70
2024/02/15 02:49:01;;;;;;;;;;;17.30;72.90;;;;;;5052342;28;19913;-70
2024/02/15 02:51:27;;;;;;;;;;;17.30;73.40;;;;;;5051836;28;19927;-70
2024/02/15 02:53:53;;;;;;;;;;;17.20;73.30;;;;;;5051822;28;19909;-70
2024/02/15 02:56:19;;;;;;;;;;;17.30;73.30;;;;;;5051895;28;20318;-70
2024/02/15 02:58:45;;;;;;;;;;;17.40;73.10;;;;;;5051924;28;19911;-70
2024/02/15 03:01:13;;;;;;;;;;;17.40;72.80;;;;;;5051811;28;20357;-71
2024/02/15 03:03:39;;;;;;;;;;;17.30;73.10;;;;;;5054868;28;19962;-70
2024/02/15 03:06:06;;;;;;;;;;;17.30;73.20;;;;;;5055356;28;19979;-70
2024/02/15 03:08:32;;;;;;;;;;;17.30;73.00;;;;;;5055394;28;20333;-70
2024/02/15 03:10:57;;;;;;;;;;;17.40;73.20;;;;;;5054938;28;19968;-70
2024/02/15 03:13:23;;;;;;;;;;;17.20;73.10;;;;;;5054965;28;19909;-70
2024/02/15 03:15:50;;;;;;;;;;;17.30;73.30;;;;;;5055144;28;19924;-70
2024/02/15 03:18:17;;;;;;;;;;;17.30;73.10;;;;;;5055634;28;19908;-72
2024/02/15 03:20:43;;;;;;;;;;;17.20;73.40;;;;;;5054879;28;19909;-72
2024/02/15 03:23:09;;;;;;;;;;;17.30;72.80;;;;;;5055001;28;19917;-72
2024/02/15 03:25:37;;;;;;;;;;;17.40;73.40;;;;;;5055006;28;19948;-72
2024/02/15 03:28:03;;;;;;;;;;;17.30;73.10;;;;;;5054978;28;19908;-72
2024/02/15 03:30:30;;;;;;;;;;;17.30;72.60;;;;;;5054519;28;19920;-72
2024/02/15 03:32:57;;;;;;;;;;;17.30;73.20;;;;;;5054468;28;19927;-72
2024/02/15 03:35:24;;;;;;;;;;;17.20;73.20;;;;;;5054530;28;20382;-72
2024/02/15 03:37:50;;;;;;;;;;;17.30;73.20;;;;;;5054877;28;19962;-72
2024/02/15 03:40:17;;;;;;;;;;;17.30;73.40;;;;;;5054453;28;19916;-72
2024/02/15 03:42:43;;;;;;;;;;;17.30;72.80;;;;;;5054806;28;19916;-72
2024/02/15 03:45:10;;;;;;;;;;;17.30;72.70;;;;;;5055200;28;19958;-72
2024/02/15 03:47:37;;;;;;;;;;;17.30;73.00;;;;;;5054696;28;19951;-72
2024/02/15 03:50:03;;;;;;;;;;;17.30;73.40;;;;;;5054538;28;19909;-72
2024/02/15 03:52:32;;;;;;;;;;;17.30;72.90;;;;;;5054297;28;19919;-72
2024/02/15 03:54:59;;;;;;;;;;;17.30;69.90;;;;;;5054525;28;19909;-72
2024/02/15 03:57:25;;;;;;;;;;;17.30;73.20;;;;;;5054507;28;19989;-72
2024/02/15 03:59:53;;;;;;;;;;;17.30;73.50;;;;;;5054152;28;19909;-72
2024/02/15 04:02:19;;;;;;;;;;;17.30;72.70;;;;;;5053995;28;19909;-72
2024/02/15 04:04:47;;;;;;;;;;;17.20;73.20;;;;;;5053540;28;20227;-73
2024/02/15 04:07:14;;;;;;;;;;;17.30;73.10;;;;;;5054321;28;19955;-72
2024/02/15 04:09:40;;;;;;;;;;;17.30;73.40;;;;;;5054224;28;19944;-73
2024/02/15 04:12:07;;;;;;;;;;;17.30;73.30;;;;;;5054033;28;19970;-73
2024/02/15 04:14:34;;;;;;;;;;;17.30;72.60;;;;;;5054492;28;19909;-72
2024/02/15 04:17:01;;;;;;;;;;;17.30;73.40;;;;;;5053889;28;19912;-72
2024/02/15 04:19:27;;;;;;;;;;;17.30;73.50;;;;;;5053993;28;20008;-72
2024/02/15 04:21:55;;;;;;;;;;;15.50;72.20;;;;;;5053796;28;19935;-72
2024/02/15 04:24:21;;;;;;;;;;;17.30;73.20;;;;;;5053594;28;20367;-72
2024/02/15 04:26:48;;;;;;;;;;;17.30;73.20;;;;;;5053766;28;20413;-72
2024/02/15 04:29:20;;;;;;;;;;;17.40;73.40;;;;;;5053836;28;19909;-72
2024/02/15 04:31:49;;;;;;;;;;;17.30;73.60;;;;;;5053541;28;19917;-72
2024/02/15 04:34:15;;;;;;;;;;;17.30;73.70;;;;;;5053306;28;19920;-72
2024/02/15 04:36:42;;;;;;;;;;;17.50;73.60;;;;;;5053382;28;19913;-72
2024/02/15 04:39:10;;;;;;;;;;;17.60;73.60;;;;;;5053681;28;19936;-72
2024/02/15 04:41:38;;;;;;;;;;;17.40;73.30;;;;;;5053663;28;19948;-72
2024/02/15 04:44:08;;;;;;;;;;;17.40;73.60;;;;;;5054037;28;19998;-72
2024/02/15 04:46:34;;;;;;;;;;;17.40;73.00;;;;;;5053198;28;19913;-72
2024/02/15 04:49:01;;;;;;;;;;;17.40;73.40;;;;;;5053481;28;19915;-72
2024/02/15 04:51:27;;;;;;;;;;;17.40;73.30;;;;;;5053020;28;19939;-72
2024/02/15 04:53:53;;;;;;;;;;;17.40;73.50;;;;;;5053417;28;20375;-72
2024/02/15 04:56:20;;;;;;;;;;;17.40;73.40;;;;;;5053186;28;19908;-72
2024/02/15 04:58:47;;;;;;;;;;;17.40;73.50;;;;;;5053240;28;19909;-72
2024/02/15 05:01:13;;;;;;;;;;;17.50;73.20;;;;;;5052942;28;19963;-72
2024/02/15 05:03:39;;;;;;;;;;;17.40;73.80;;;;;;5053225;28;19916;-72
2024/02/15 05:06:04;;;;;;;;;;;17.40;73.40;;;;;;5053014;28;19909;-72
2024/02/15 05:08:31;;;;;;;;;;;17.40;73.90;;;;;;5052868;28;20308;-72
2024/02/15 05:10:58;;;;;;;;;;;17.40;73.40;;;;;;5053266;28;19976;-72
2024/02/15 05:13:26;;;;;;;;;;;17.50;73.10;;;;;;5053063;28;19925;-72
2024/02/15 05:15:51;;;;;;;;;;;17.50;69.50;;;;;;5052749;28;19916;-72
2024/02/15 05:18:18;;;;;;;;;;;17.50;73.40;;;;;;5052689;28;19909;-72
2024/02/15 05:20:43;;;;;;;;;;;17.40;73.80;;;;;;5052607;28;19999;-72
2024/02/15 05:23:09;;;;;;;;;;;17.50;73.80;;;;;;5052662;28;19960;-72
2024/02/15 05:25:35;;;;;;;;;;;17.50;73.80;;;;;;5051881;28;20379;-73
2024/02/15 05:28:01;;;;;;;;;;;17.50;73.80;;;;;;5052655;28;19920;-72
2024/02/15 05:30:27;;;;;;;;;;;17.50;73.30;;;;;;5052525;28;19912;-72
2024/02/15 05:32:53;;;;;;;;;;;17.50;73.70;;;;;;5052601;28;19928;-72
2024/02/15 05:35:18;;;;;;;;;;;17.50;74.00;;;;;;5052531;28;20299;-72
2024/02/15 05:37:44;;;;;;;;;;;17.50;73.50;;;;;;5052523;28;19909;-72
2024/02/15 05:40:14;;;;;;;;;;;17.60;75.00;;;;;;5052975;28;20363;-72
2024/02/15 05:42:46;;;;;;;;;;;17.60;72.60;;;;;;5052422;28;19916;-72
2024/02/15 05:45:32;;;;;;;;;;;17.50;70.00;;;;;;5052446;28;20450;-73
2024/02/15 05:47:58;;;;;;;;;;;17.60;70.10;;;;;;5052436;28;19909;-72
2024/02/15 05:50:24;;;;;;;;;;;17.60;74.00;;;;;;5052305;28;19917;-72
2024/02/15 05:52:51;;;;;;;;;;;17.60;74.20;;;;;;5052370;28;19916;-70
2024/02/15 05:55:18;;;;;;;;;;;17.70;74.80;;;;;;5052338;28;20274;-70
2024/02/15 05:57:44;;;;;;;;;;;17.50;73.90;;;;;;5052511;28;19944;-70
2024/02/15 06:00:11;;;;;;;;;;;17.60;74.00;;;;;;5052518;28;19916;-70
2024/02/15 06:02:37;;;;;;;;;;;17.70;74.00;;;;;;5052070;28;19913;-70
2024/02/15 06:05:04;;;;;;;;;;;17.70;74.00;;;;;;5052390;28;19909;-70
2024/02/15 06:07:31;;;;;;;;;;;17.60;73.30;;;;;;5052861;28;20005;-72
2024/02/15 06:09:57;;;;;;;;;;;17.60;74.00;;;;;;5052290;28;19909;-72
2024/02/15 06:12:23;;;;;;;;;;;17.50;74.00;;;;;;5052370;28;19917;-72
2024/02/15 06:14:49;;;;;;;;;;;17.30;74.10;;;;;;5052272;28;20007;-72
2024/02/15 06:17:15;;;;;;;;;;;17.60;74.10;;;;;;5052094;28;19917;-72
2024/02/15 06:19:41;;;;;;;;;;;17.60;74.10;;;;;;5052403;28;19909;-72
2024/02/15 06:22:08;;;;;;;;;;;17.70;74.00;;;;;;5052014;28;19915;-73
2024/02/15 06:24:34;;;;;;;;;;;17.70;74.00;;;;;;5052309;28;19909;-72
2024/02/15 06:27:01;;;;;;;;;;;17.60;73.80;;;;;;5052281;28;19909;-73
2024/02/15 06:40:37;;;;;;;;;;;17.60;70.50;;;;;;5056115;28;19915;-69
2024/02/15 06:43:03;;;;;;;;;;;17.60;73.90;;;;;;5055663;28;20314;-71
2024/02/15 06:45:31;;;;;;;;;;;17.70;73.30;;;;;;5055763;28;19916;-71
2024/02/15 06:47:58;;;;;;;;;;;17.60;73.70;;;;;;5038363;28;19909;-70
2024/02/15 06:50:23;;;;;;;;;;;17.70;73.70;;;;;;5055800;28;19915;-70
2024/02/15 06:52:51;;;;;;;;;;;17.60;73.70;;;;;;5055688;28;20003;-70
2024/02/15 06:55:18;;;;;;;;;;;17.60;73.80;;;;;;5056124;28;19909;-73
2024/02/15 06:57:44;;;;;;;;;;;17.70;73.80;;;;;;5055658;28;19908;-73
2024/02/15 07:00:14;;;;;;;;;;;17.60;73.80;;;;;;5055469;28;19909;-72
2024/02/15 07:02:41;;;;;;;;;;;17.70;73.10;;;;;;5055673;28;19909;-72
2024/02/15 07:05:06;;;;;;;;;;;17.70;73.40;;;;;;5055261;28;19909;-72
2024/02/15 07:07:32;;;;;;;;;;;17.70;73.00;;;;;;5055296;28;19909;-73
2024/02/15 07:09:58;;;;;;;;;;;17.60;73.70;;;;;;5055541;28;19909;-74
2024/02/15 07:12:23;;;;;;;;;;;17.60;73.80;;;;;;5055281;28;20298;-73
2024/02/15 07:14:49;;;;;;;;;;;17.60;73.90;;;;;;5055526;28;19913;-73
2024/02/15 07:17:15;;;;;;;;;;;17.70;73.80;;;;;;5055332;28;19909;-74
2024/02/15 07:19:44;;;;;;;;;;;17.70;73.80;;;;;;5055281;28;19908;-73
2024/02/15 07:22:10;;;;;;;;;;;17.70;69.70;;;;;;5055360;28;20279;-73
2024/02/15 07:24:38;;;;;;;;;;;17.70;73.30;;;;;;5055625;28;19909;-73
2024/02/15 07:27:04;;;;;;;;;;;17.80;73.80;;;;;;5054973;28;19963;-73
2024/02/15 07:29:31;;;;;;;;;;;17.90;73.50;;;;;;5054957;28;20379;-73
2024/02/15 07:31:57;;;;;;;;;;;17.70;73.80;;;;;;5054882;28;19917;-73
2024/02/15 07:34:22;;;;;;;;;;;17.70;73.90;;;;;;5054713;28;20375;-73
2024/02/15 07:36:48;;;;;;;;;;;17.70;73.80;;;;;;5055035;28;19908;-73
2024/02/15 07:39:23;;;;;;;;;;;17.70;74.00;;;;;;5054788;28;19952;-72
2024/02/15 07:41:49;;;;;;;;;;;17.70;73.80;;;;;;5055133;28;20419;-73
2024/02/15 07:44:14;;;;;;;;;;;17.80;74.20;;;;;;5054591;28;19944;-74
2024/02/15 07:46:40;;;;;;;;;;;17.70;73.80;;;;;;5054717;28;19951;-74
2024/02/15 07:49:07;;;;;;;;;;;17.70;73.90;;;;;;5054115;28;19986;-74
2024/02/15 07:51:33;;;;;;;;;;;17.80;73.80;;;;;;5055039;28;19916;-75
2024/02/15 07:53:58;;;;;;;;;;;17.70;74.00;;;;;;5054534;28;20047;-73
2024/02/15 07:56:24;;;;;;;;;;;17.70;74.10;;;;;;5054583;28;19954;-73
2024/02/15 07:58:51;;;;;;;;;;;17.70;73.90;;;;;;5054530;28;20320;-74
2024/02/15 08:01:17;;;;;;;;;;;17.80;73.50;;;;;;5054256;28;19909;-75
2024/02/15 08:03:46;;;;;;;;;;;17.70;73.90;;;;;;5054428;28;19916;-73
2024/02/15 08:06:12;;;;;;;;;;;17.80;74.10;;;;;;5054344;28;19916;-75
2024/02/15 08:08:38;;;;;;;;;;;17.80;73.90;;;;;;5054302;28;19915;-72
2024/02/15 08:11:05;;;;;;;;;;;17.70;74.00;;;;;;5054466;28;20003;-73
2024/02/15 08:13:31;;;;;;;;;;;17.80;73.80;;;;;;5036452;28;20366;-76
2024/02/15 08:15:56;;;;;;;;;;;17.70;73.80;;;;;;5054200;28;19909;-75
2024/02/15 08:18:22;;;;;;;;;;;17.80;74.00;;;;;;5054055;28;19913;-73
2024/02/15 08:20:47;;;;;;;;;;;17.80;73.50;;;;;;5054553;28;20333;-77
2024/02/15 08:23:13;;;;;;;;;;;18.00;74.20;;;;;;5053954;28;19916;-75
2024/02/15 08:25:40;;;;;;;;;;;17.90;73.70;;;;;;5053891;28;20086;-75
2024/02/15 08:28:07;;;;;;;;;;;17.80;74.30;;;;;;5054198;28;19962;-75
2024/02/15 08:30:33;;;;;;;;;;;17.80;73.60;;;;;;5053834;28;19916;-75
2024/02/15 08:32:58;;;;;;;;;;;17.80;73.80;;;;;;5053805;28;20315;-75
2024/02/15 08:35:24;;;;;;;;;;;17.80;73.40;;;;;;5053801;28;19916;-75
2024/02/15 08:37:51;;;;;;;;;;;17.80;73.70;;;;;;5053798;28;19935;-75
2024/02/15 08:40:18;;;;;;;;;;;17.80;73.60;;;;;;5053750;28;20433;-75
2024/02/15 08:42:45;;;;;;;;;;;17.70;73.20;;;;;;5053660;28;19916;-74
2024/02/15 08:45:12;;;;;;;;;;;17.80;73.60;;;;;;5053594;28;19909;-75
2024/02/15 08:47:38;;;;;;;;;;;17.80;73.40;;;;;;5053462;28;19917;-74
2024/02/15 08:50:04;;;;;;;;;;;17.80;73.10;;;;;;5054183;28;19912;-73
2024/02/15 08:52:30;;;;;;;;;;;17.80;72.20;;;;;;5035460;28;19917;-71
2024/02/15 08:54:57;;;;;;;;;;;17.80;73.60;;;;;;5053209;28;19963;-71
2024/02/15 08:57:22;;;;;;;;;;;17.80;73.40;;;;;;5053265;28;19909;-72
2024/02/15 08:59:48;;;;;;;;;;;17.80;73.50;;;;;;5052076;28;19978;-71
2024/02/15 09:02:14;;;;;;;;;;;17.90;73.00;;;;;;5053147;28;19909;-72
2024/02/15 09:04:40;;;;;;;;;;;17.90;73.50;;;;;;5052931;28;19935;-72
2024/02/15 09:07:07;;;;;;;;;;;17.90;73.30;;;;;;5053053;28;19999;-71
2024/02/15 09:09:33;;;;;;;;;;;17.80;73.60;;;;;;5053183;28;19909;-72
2024/02/15 09:12:01;;;;;;;;;;;17.80;73.20;;;;;;5052822;28;19983;-73
2024/02/15 09:14:26;;;;;;;;;;;17.80;73.40;;;;;;5052883;28;19909;-72
2024/02/15 09:16:52;;;;;;;;;;;17.80;73.00;;;;;;5053325;28;19931;-72
2024/02/15 09:19:18;;;;;;;;;;;17.80;73.40;;;;;;5052952;28;19931;-72
2024/02/15 09:21:44;;;;;;;;;;;17.90;73.10;;;;;;5052662;28;19909;-72
2024/02/15 09:24:10;;;;;;;;;;;17.90;73.30;;;;;;5052938;28;19917;-72
2024/02/15 09:26:36;;;;;;;;;;;17.80;73.40;;;;;;5052653;28;19909;-72
2024/02/15 09:29:01;;;;;;;;;;;17.80;73.20;;;;;;5052721;28;19909;-72
2024/02/15 09:31:27;;;;;;;;;;;17.90;73.40;;;;;;5052512;28;20015;-72
2024/02/15 09:33:52;;;;;;;;;;;17.80;73.20;;;;;;5052521;28;19983;-72
2024/02/15 09:36:18;;;;;;;;;;;17.90;73.40;;;;;;5052551;28;20106;-72
2024/02/15 09:38:43;;;;;;;;;;;17.80;73.10;;;;;;5052435;28;19991;-72
2024/02/15 09:41:09;;;;;;;;;;;17.80;73.30;;;;;;5052468;28;19965;-72
2024/02/15 09:43:35;;;;;;;;;;;17.70;73.20;;;;;;5052448;28;19909;-72
2024/02/15 09:46:04;;;;;;;;;;;17.90;72.90;;;;;;5053059;28;20378;-72
2024/02/15 09:48:31;;;;;;;;;;;17.90;73.10;;;;;;5052177;28;19913;-72
2024/02/15 09:50:57;;;;;;;;;;;17.90;73.60;;;;;;5052194;28;19962;-72
2024/02/15 09:53:25;;;;;;;;;;;17.80;72.80;;;;;;5052252;28;20350;-72
2024/02/15 09:55:54;;;;;;;;;;;17.80;73.20;;;;;;5052194;28;20398;-71
2024/02/15 09:58:19;;;;;;;;;;;17.80;73.10;;;;;;5052248;28;19975;-72
2024/02/15 10:00:46;;;;;;;;;;;17.80;73.20;;;;;;5052170;28;19909;-71
2024/02/15 10:03:16;;;;;;;;;;;17.80;72.90;;;;;;5052137;28;20330;-71
2024/02/15 10:05:41;;;;;;;;;;;18.00;73.30;;;;;;5052038;28;19908;-71
2024/02/15 10:08:07;;;;;;;;;;;17.90;73.50;;;;;;5051989;28;20395;-71
2024/02/15 10:10:33;;;;;;;;;;;17.80;73.00;;;;;;5051866;28;19917;-71
2024/02/15 10:13:00;;;;;;;;;;;17.80;72.70;;;;;;5056014;28;19916;-71
2024/02/15 10:15:36;;;;;;;;;;;17.90;73.00;;;;;;5056726;28;20370;-71
2024/02/15 10:18:03;;;;;;;;;;;17.90;69.20;;;;;;5056008;28;20398;-71
2024/02/15 10:20:28;;;;;;;;;;;17.90;73.00;;;;;;5056261;28;19909;-71
2024/02/15 10:23:00;;;;;;;;;;;17.80;73.20;;;;;;5055880;28;19916;-72
2024/02/15 10:25:29;;;;;;;;;;;18.00;69.50;;;;;;5056045;28;19957;-72
2024/02/15 10:28:23;;;;;;;;;;;17.90;69.20;;;;;;5055882;28;19909;-72
2024/02/15 10:30:50;;;;;;;;;;;17.90;69.40;;;;;;5053599;28;19965;-71
2024/02/15 10:33:29;;;;;;;;;;;18.00;73.20;;;;;;5055667;28;19990;-72
2024/02/15 10:36:11;;;;;;;;;;;17.90;69.50;;;;;;5055778;28;19909;-73
2024/02/15 10:38:36;;;;;;;;;;;17.90;69.60;;;;;;5055844;28;19909;-73
2024/02/15 10:41:06;;;;;;;;;;;18.00;73.90;;;;;;5037937;28;20259;-73
2024/02/15 10:43:34;;;;;;;;;;;18.00;69.80;;;;;;5055637;28;20275;-72
2024/02/15 10:46:00;;;;;;;;;;;17.80;69.50;;;;;;5055850;28;20293;-73
2024/02/15 10:48:29;;;;;;;;;;;18.10;74.00;;;;;;5055460;28;19909;-73
2024/02/15 10:51:03;;;;;;;;;;;18.10;71.20;;;;;;5055245;28;20376;-72
2024/02/15 10:53:31;;;;;;;;;;;18.00;69.80;;;;;;5055691;28;20003;-72
2024/02/15 10:56:03;;;;;;;;;;;18.00;73.90;;;;;;5055265;28;19916;-73
2024/02/15 10:58:34;;;;;;;;;;;18.00;69.90;;;;;;5055264;28;19912;-73
2024/02/15 11:01:01;;;;;;;;;;;18.00;73.80;;;;;;5061863;28;19962;-73
2024/02/15 11:03:32;;;;;;;;;;;18.10;73.40;;;;;;5055529;28;19920;-73
2024/02/15 11:06:00;;;;;;;;;;;18.10;73.90;;;;;;5055224;28;20363;-72
2024/02/15 11:08:27;;;;;;;;;;;18.10;73.90;;;;;;5055512;28;20276;-72
2024/02/15 11:10:54;;;;;;;;;;;18.20;73.80;;;;;;5055013;28;19913;-72
2024/02/15 11:13:20;;;;;;;;;;;18.10;74.00;;;;;;5055053;28;19976;-72
2024/02/15 11:15:48;;;;;;;;;;;18.10;73.80;;;;;;5055014;28;20003;-72
2024/02/15 11:18:34;;;;;;;;;;;18.20;73.80;;;;;;5054945;28;19908;-72
2024/02/15 11:21:00;;;;;;;;;;;18.20;73.20;;;;;;5054740;28;20000;-72
2024/02/15 11:23:26;;;;;;;;;;;18.30;73.80;;;;;;5053783;28;19940;-72
2024/02/15 11:25:59;;;;;;;;;;;18.20;73.90;;;;;;5055154;28;19909;-72
2024/02/15 11:28:27;;;;;;;;;;;18.20;73.70;;;;;;5054861;28;20378;-72
2024/02/15 11:30:56;;;;;;;;;;;18.30;70.20;;;;;;5054689;28;19913;-72
2024/02/15 11:33:32;;;;;;;;;;;18.30;73.90;;;;;;5054525;28;19982;-72
2024/02/15 11:36:11;;;;;;;;;;;18.30;69.90;;;;;;5054606;28;19932;-73
2024/02/15 11:38:37;;;;;;;;;;;18.30;69.80;;;;;;5055442;28;19909;-70
2024/02/15 11:41:04;;;;;;;;;;;18.40;73.70;;;;;;5054536;28;19908;-72
2024/02/15 11:46:14;;;;;;;;;;;18.40;69.70;;;;;;5054296;28;19909;-71
2024/02/15 11:48:40;;;;;;;;;;;18.40;73.60;;;;;;5054280;28;19990;-71
2024/02/15 11:51:06;;;;;;;;;;;18.30;73.30;;;;;;5054641;28;19912;-72
2024/02/15 11:53:35;;;;;;;;;;;18.40;73.60;;;;;;5054364;28;20002;-70
2024/02/15 11:56:01;;;;;;;;;;;18.40;69.50;;;;;;5054240;28;20255;-72
2024/02/15 11:58:41;;;;;;;;;;;18.60;73.50;;;;;;5054531;28;20005;-69
2024/02/15 12:20:31;;;;;;;;;;;19.10;71.30;;;;;;5054259;28;19920;-70
2024/02/15 12:22:58;;;;;;;;;;;19.10;71.30;;;;;;5019664;28;20394;-71
2024/02/15 12:25:24;;;;;;;;;;;19.10;71.10;;;;;;5054022;28;19916;-71
2024/02/15 12:27:54;;;;;;;;;;;19.20;71.00;;;;;;5054195;28;19909;-71
2024/02/15 12:30:21;;;;;;;;;;;19.30;67.60;;;;;;5053708;28;20393;-69
2024/02/15 12:32:47;;;;;;;;;;;19.40;70.60;;;;;;5053761;28;19921;-70
2024/02/15 12:35:16;;;;;;;;;;;19.50;71.30;;;;;;5053283;28;20497;-71
2024/02/15 12:37:43;;;;;;;;;;;19.60;70.50;;;;;;5053534;28;19984;-71
2024/02/15 12:40:15;;;;;;;;;;;19.60;70.50;;;;;;5053427;28;20406;-70
2024/02/15 12:42:44;;;;;;;;;;;19.70;70.70;;;;;;5053462;28;19909;-70
2024/02/15 12:45:20;;;;;;;;;;;19.60;70.40;;;;;;5053496;28;19952;-70
2024/02/15 12:47:52;;;;;;;;;;;19.40;67.40;;;;;;5035569;28;19954;-70
2024/02/15 12:50:19;;;;;;;;;;;19.70;67.70;;;;;;5035358;28;19931;-70
2024/02/15 12:52:47;;;;;;;;;;;19.50;71.60;;;;;;5053190;28;19964;-70
2024/02/15 12:55:13;;;;;;;;;;;19.70;71.30;;;;;;5053476;28;20324;-70
2024/02/15 12:57:42;;;;;;;;;;;19.60;71.20;;;;;;5053058;28;19914;-70
2024/02/15 13:00:17;;;;;;;;;;;19.50;71.30;;;;;;5053127;28;19909;-71
2024/02/15 13:02:50;;;;;;;;;;;19.60;71.10;;;;;;5055286;28;19916;-71
2024/02/15 13:05:18;;;;;;;;;;;19.50;67.70;;;;;;5053191;28;19915;-76
2024/02/15 13:07:44;;;;;;;;;;;19.60;71.80;;;;;;5053033;28;20371;-76
2024/02/15 13:10:10;;;;;;;;;;;19.50;71.80;;;;;;5053045;28;19963;-76
2024/02/15 13:12:37;;;;;;;;;;;19.50;71.70;;;;;;5052796;28;19917;-76
2024/02/15 13:15:11;;;;;;;;;;;19.50;71.90;;;;;;5052938;28;19909;-76
2024/02/15 13:17:37;;;;;;;;;;;19.50;68.10;;;;;;5053246;28;20278;-77
2024/02/15 13:20:11;;;;;;;;;;;19.50;71.90;;;;;;5053354;28;20393;-76
2024/02/15 13:22:38;;;;;;;;;;;19.50;71.60;;;;;;5053151;28;19908;-75
2024/02/15 13:25:08;;;;;;;;;;;19.50;71.80;;;;;;5053214;28;19962;-76
2024/02/15 13:27:34;;;;;;;;;;;19.50;68.50;;;;;;5052841;28;20018;-77
2024/02/15 13:30:01;;;;;;;;;;;19.60;72.30;;;;;;5052695;28;19992;-76
2024/02/15 13:32:26;;;;;;;;;;;19.40;72.40;;;;;;5052687;28;20015;-76
2024/02/15 13:34:55;;;;;;;;;;;19.40;72.70;;;;;;5052570;28;19956;-76
2024/02/15 13:37:23;;;;;;;;;;;19.30;72.80;;;;;;5052637;28;19908;-78
2024/02/15 13:39:49;;;;;;;;;;;19.40;72.40;;;;;;5052608;28;19909;-77
2024/02/15 13:42:15;;;;;;;;;;;19.30;72.90;;;;;;5052872;28;19915;-75
2024/02/15 13:44:47;;;;;;;;;;;19.40;73.20;;;;;;5052556;28;20367;-77
2024/02/15 13:47:12;;;;;;;;;;;19.30;69.00;;;;;;5034107;28;19931;-75
2024/02/15 13:49:38;;;;;;;;;;;19.40;72.80;;;;;;5052668;28;20275;-75
2024/02/15 13:52:06;;;;;;;;;;;19.50;72.50;;;;;;5052446;28;20034;-72
2024/02/15 13:54:31;;;;;;;;;;;19.50;71.60;;;;;;5052350;28;19909;-72
2024/02/15 13:56:57;;;;;;;;;;;19.40;72.20;;;;;;5052345;28;19916;-72
2024/02/15 13:59:23;;;;;;;;;;;19.50;72.40;;;;;;5052723;28;19951;-73
2024/02/15 14:01:49;;;;;;;;;;;19.50;72.20;;;;;;5052328;28;19955;-74
2024/02/15 14:04:16;;;;;;;;;;;19.40;72.40;;;;;;5052306;28;19952;-74
2024/02/15 14:06:44;;;;;;;;;;;19.40;72.50;;;;;;5052304;28;19959;-75
2024/02/15 14:09:12;;;;;;;;;;;19.30;68.90;;;;;;5052261;28;19913;-75
2024/02/15 14:11:38;;;;;;;;;;;19.30;72.80;;;;;;5051955;28;20314;-74
2024/02/15 14:14:05;;;;;;;;;;;19.40;72.60;;;;;;5052207;28;19995;-73
2024/02/15 14:16:30;;;;;;;;;;;19.40;72.60;;;;;;5052499;28;19952;-74
2024/02/15 14:18:56;;;;;;;;;;;19.20;73.00;;;;;;5052308;28;19944;-74
2024/02/15 14:21:22;;;;;;;;;;;19.30;73.20;;;;;;5052444;28;19909;-74
2024/02/15 14:23:49;;;;;;;;;;;19.30;73.20;;;;;;5052128;28;20368;-74
2024/02/15 14:26:16;;;;;;;;;;;19.30;72.90;;;;;;5052141;28;19916;-75
2024/02/15 14:28:43;;;;;;;;;;;19.30;72.90;;;;;;5034380;28;19917;-74
2024/02/15 14:33:54;;;;;;;;;;;19.30;73.40;;;;;;5052061;28;20015;-74
2024/02/15 14:36:20;;;;;;;;;;;19.20;73.40;;;;;;5052171;28;19955;-74
2024/02/15 14:38:46;;;;;;;;;;;19.20;73.20;;;;;;5051997;28;19931;-74
2024/02/15 14:41:12;;;;;;;;;;;19.20;73.00;;;;;;5052032;28;19956;-74
2024/02/15 14:43:38;;;;;;;;;;;19.20;73.00;;;;;;5051997;28;19948;-73
2024/02/15 14:46:05;;;;;;;;;;;19.20;73.20;;;;;;5051982;28;20291;-74
2024/02/15 14:48:34;;;;;;;;;;;19.30;73.00;;;;;;5052216;28;19909;-74
2024/02/15 14:51:00;;;;;;;;;;;19.20;73.20;;;;;;5051768;28;19921;-74